createdAt,value
2022-08-17T00:02:26.242Z,94623.75
2022-08-17T00:04:54.898Z,94622.16
2022-08-17T00:07:21.815Z,94621.09
2022-08-17T00:09:48.480Z,94620.47
2022-08-17T00:12:41.556Z,94612.13
2022-08-17T00:15:02.492Z,94615.19
2022-08-17T00:17:29.154Z,94610.22
2022-08-17T00:19:55.767Z,94604.47
2022-08-17T00:22:31.974Z,94611.69
2022-08-17T00:25:02.429Z,94604.34
2022-08-17T00:27:29.116Z,94603.97
2022-08-17T00:29:55.747Z,94603.19
2022-08-17T00:33:14.623Z,94600.19
2022-08-17T00:35:11.526Z,94594.22
2022-08-17T00:37:38.324Z,94594.03
2022-08-17T00:40:06.075Z,94592.97
2022-08-17T00:42:33.664Z,94589.31
2022-08-17T00:45:00.405Z,94594.13
2022-08-17T00:47:27.157Z,94585.72
2022-08-17T00:49:54.126Z,94592.53
2022-08-17T00:52:26.124Z,94594.50
2022-08-17T00:54:55.276Z,94593.06
2022-08-17T00:57:28.388Z,94593.50
2022-08-17T01:00:02.314Z,94589.16
2022-08-17T01:02:41.561Z,94593.41
2022-08-17T01:05:14.101Z,94585.22
2022-08-17T01:07:42.794Z,94597.09
2022-08-17T01:10:58.269Z,94590.91
2022-08-17T01:12:59.960Z,94597.38
2022-08-17T01:15:26.619Z,94584.56
2022-08-17T01:17:53.234Z,94581.81
2022-08-17T01:20:19.926Z,94588.22
2022-08-17T01:22:46.628Z,94586.88
2022-08-17T01:25:14.526Z,94595.38
2022-08-17T01:27:42.677Z,94590.50
2022-08-17T01:30:58.988Z,94591.63
2022-08-17T01:32:59.019Z,94583.38
2022-08-17T01:35:25.856Z,94592.28
2022-08-17T01:37:52.626Z,94585.47
2022-08-17T01:40:43.674Z,94584.69
2022-08-17T01:43:25.044Z,94594.19
2022-08-17T01:46:03.522Z,94586.66
2022-08-17T01:48:36.460Z,94585.41
2022-08-17T01:51:06.266Z,94574.41
2022-08-17T01:53:40.570Z,94575.66
2022-08-17T01:56:11.077Z,94581.53
2022-08-17T01:58:39.485Z,94578.66
2022-08-17T02:01:08.411Z,94574.34
2022-08-17T02:03:37.756Z,94569.50
2022-08-17T02:06:06.530Z,94575.63
2022-08-17T02:09:02.689Z,94570.03
2022-08-17T02:11:33.856Z,94574.41
2022-08-17T02:14:02.880Z,94581.63
2022-08-17T02:16:37.898Z,94565.09
2022-08-17T02:19:10.996Z,94565.91
2022-08-17T02:21:39.440Z,94555.53
2022-08-17T02:24:10.865Z,94553.94
2022-08-17T02:26:37.401Z,94544.19
2022-08-17T02:29:04.336Z,94540.34
2022-08-17T02:31:31.136Z,94545.44
2022-08-17T02:34:03.993Z,94543.47
2022-08-17T02:36:33.805Z,94548.22
2022-08-17T02:39:05.458Z,94543.56
2022-08-17T02:41:32.152Z,94536.06
2022-08-17T02:43:59.063Z,94532.75
2022-08-17T02:46:26.059Z,94535.59
2022-08-17T02:48:52.680Z,94527.50
2022-08-17T02:51:19.345Z,94536.59
2022-08-17T02:53:46.784Z,94536.78
2022-08-17T02:56:13.734Z,94535.25
2022-08-17T02:58:40.364Z,94540.38
2022-08-17T03:01:09.257Z,94529.63
2022-08-17T03:03:37.259Z,94528.47
2022-08-17T03:06:04.722Z,94537.84
2022-08-17T03:08:31.656Z,94529.72
2022-08-17T03:10:58.351Z,94540.63
2022-08-17T03:13:25.690Z,94530.00
2022-08-17T03:15:52.305Z,94527.94
2022-08-17T03:18:25.696Z,94529.81
2022-08-17T03:20:58.685Z,94532.06
2022-08-17T03:23:27.510Z,94525.50
2022-08-17T03:25:56.420Z,94531.69
2022-08-17T03:28:23.888Z,94540.28
2022-08-17T03:30:51.654Z,94540.81
2022-08-17T03:33:20.638Z,94550.72
2022-08-17T03:35:47.472Z,94553.75
2022-08-17T03:38:17.068Z,94562.09
2022-08-17T03:40:58.203Z,94554.84
2022-08-17T03:43:29.499Z,94552.97
2022-08-17T03:46:28.401Z,94562.19
2022-08-17T03:49:19.227Z,94568.63
2022-08-17T03:52:04.451Z,94560.66
2022-08-17T03:54:49.806Z,94561.38
2022-08-17T03:57:16.649Z,94558.50
2022-08-17T03:59:43.317Z,94556.16
2022-08-17T04:02:17.462Z,94559.44
2022-08-17T04:04:44.477Z,94552.22
2022-08-17T04:07:11.545Z,94549.06
2022-08-17T04:09:38.183Z,94551.91
2022-08-17T04:12:05.625Z,94553.94
2022-08-17T04:14:39.313Z,94549.59
2022-08-17T04:17:20.375Z,94550.97
2022-08-17T04:19:47.026Z,94542.81
2022-08-17T04:22:31.994Z,94542.28
2022-08-17T04:25:16.260Z,94545.97
2022-08-17T04:27:42.930Z,94542.56
2022-08-17T04:30:10.252Z,94538.28
2022-08-17T04:33:03.712Z,94542.28
2022-08-17T04:35:40.148Z,94549.75
2022-08-17T04:38:08.775Z,94553.34
2022-08-17T04:40:54.491Z,94562.47
2022-08-17T04:43:23.812Z,94565.63
2022-08-17T04:45:56.037Z,94565.66
2022-08-17T04:48:29.980Z,94568.16
2022-08-17T04:51:13.478Z,94573.63
2022-08-17T04:53:44.084Z,94571.19
2022-08-17T04:56:16.594Z,94573.75
2022-08-17T04:58:47.860Z,94568.06
2022-08-17T05:01:16.270Z,94572.00
2022-08-17T05:03:50.259Z,94581.09
2022-08-17T05:06:16.982Z,94586.56
2022-08-17T05:08:43.655Z,94588.22
2022-08-17T05:11:10.399Z,94584.38
2022-08-17T05:13:37.055Z,94583.38
2022-08-17T05:16:04.734Z,94576.69
2022-08-17T05:18:31.920Z,94575.63
2022-08-17T05:20:58.778Z,94586.72
2022-08-17T05:23:27.711Z,94570.25
2022-08-17T05:26:10.303Z,94572.72
2022-08-17T05:28:42.932Z,94577.84
2022-08-17T05:31:12.721Z,94577.28
2022-08-17T05:33:45.185Z,94575.97
2022-08-17T05:36:42.079Z,94575.44
2022-08-17T05:39:01.626Z,94579.13
2022-08-17T05:41:28.297Z,94583.19
2022-08-17T05:43:56.518Z,94581.22
2022-08-17T05:46:31.340Z,94582.50
2022-08-17T05:49:03.167Z,94579.31
2022-08-17T05:51:55.409Z,94568.25
2022-08-17T05:54:21.978Z,94576.50
2022-08-17T05:57:06.685Z,94580.88
2022-08-17T05:59:52.758Z,94587.88
2022-08-17T06:02:22.335Z,94592.50
2022-08-17T06:04:54.639Z,94591.66
2022-08-17T06:07:28.883Z,94591.00
2022-08-17T06:10:20.184Z,94590.50
2022-08-17T06:13:12.426Z,94601.88
2022-08-17T06:16:01.913Z,94596.00
2022-08-17T06:18:36.424Z,94602.69
2022-08-17T06:21:07.167Z,94598.72
2022-08-17T06:23:38.051Z,94598.78
2022-08-17T06:26:27.479Z,94596.72
2022-08-17T06:29:04.997Z,94611.25
2022-08-17T06:31:38.492Z,94617.22
2022-08-17T06:34:09.508Z,94614.88
2022-08-17T06:36:42.376Z,94624.38
2022-08-17T06:39:27.241Z,94632.50
2022-08-17T06:43:02.863Z,94634.47
2022-08-17T06:45:27.118Z,94623.19
2022-08-17T06:48:11.678Z,94631.13
2022-08-17T06:50:44.971Z,94639.94
2022-08-17T06:53:35.819Z,94649.09
2022-08-17T06:56:08.848Z,94655.50
2022-08-17T06:58:37.317Z,94641.56
2022-08-17T07:01:12.403Z,94640.63
2022-08-17T07:03:42.539Z,94659.81
2022-08-17T07:06:18.353Z,94664.69
2022-08-17T07:09:07.482Z,94659.56
2022-08-17T07:11:34.043Z,94654.53
2022-08-17T07:14:17.282Z,94659.66
2022-08-17T07:16:48.878Z,94668.16
2022-08-17T07:19:18.041Z,94664.81
2022-08-17T07:22:10.630Z,94674.47
2022-08-17T07:24:59.617Z,94671.84
2022-08-17T07:27:32.799Z,94672.66
2022-08-17T07:30:10.335Z,94668.78
2022-08-17T07:32:47.552Z,94669.53
2022-08-17T07:35:15.267Z,94674.84
2022-08-17T07:37:53.016Z,94672.19
2022-08-17T07:40:22.832Z,94666.94
2022-08-17T07:43:21.935Z,94663.03
2022-08-17T07:46:09.866Z,94670.50
2022-08-17T07:48:39.004Z,94675.38
2022-08-17T07:51:19.235Z,94674.53
2022-08-17T07:53:46.217Z,94670.66
2022-08-17T07:56:37.760Z,94664.72
2022-08-17T07:59:16.380Z,94666.44
2022-08-17T08:01:58.809Z,94657.97
2022-08-17T08:07:20.516Z,94667.50
2022-08-17T08:10:07.975Z,94670.66
2022-08-17T08:12:46.593Z,94681.66
2022-08-17T08:15:23.233Z,94666.72
2022-08-17T08:17:52.970Z,94670.47
2022-08-17T08:20:53.373Z,94667.53
2022-08-17T08:23:39.533Z,94652.34
2022-08-17T08:26:26.517Z,94655.69
2022-08-17T08:29:11.677Z,94659.56
2022-08-17T08:32:05.157Z,94654.28
2022-08-17T08:35:03.585Z,94652.53
2022-08-17T08:37:52.560Z,94664.78
2022-08-17T08:40:38.748Z,94653.28
2022-08-17T08:43:27.457Z,94653.81
2022-08-17T08:46:23.377Z,94657.13
2022-08-17T08:49:12.019Z,94664.63
2022-08-17T08:51:56.248Z,94666.56
2022-08-17T08:54:31.603Z,94668.44
2022-08-17T08:57:24.156Z,94670.63
2022-08-17T09:00:15.316Z,94663.78
2022-08-17T09:03:02.832Z,94660.03
2022-08-17T09:05:56.239Z,94656.59
2022-08-17T09:08:27.211Z,94666.44
2022-08-17T09:10:56.830Z,94660.09
2022-08-17T09:13:54.142Z,94658.25
2022-08-17T09:16:29.791Z,94652.66
2022-08-17T09:19:11.620Z,94662.97
2022-08-17T09:21:58.719Z,94661.63
2022-08-17T09:24:47.806Z,94663.97
2022-08-17T09:27:18.450Z,94668.50
2022-08-17T09:29:51.802Z,94663.84
2022-08-17T09:32:42.786Z,94653.28
2022-08-17T09:35:17.626Z,94663.56
2022-08-17T09:38:09.869Z,94664.78
2022-08-17T09:40:45.387Z,94666.91
2022-08-17T09:43:24.738Z,94660.00
2022-08-17T09:45:57.274Z,94654.66
2022-08-17T09:48:32.941Z,94663.56
2022-08-17T09:51:29.529Z,94663.56
2022-08-17T09:54:09.470Z,94667.72
2022-08-17T09:57:27.924Z,94660.03
2022-08-17T09:59:57.655Z,94669.13
2022-08-17T10:02:58.302Z,94677.84
2022-08-17T10:05:37.717Z,94678.06
2022-08-17T10:08:27.703Z,94675.41
2022-08-17T10:11:46.420Z,94667.97
2022-08-17T10:14:37.502Z,94671.44
2022-08-17T10:17:43.163Z,94678.34
2022-08-17T10:20:16.943Z,94674.72
2022-08-17T10:23:04.640Z,94671.19
2022-08-17T10:25:55.676Z,94672.94
2022-08-17T10:28:29.847Z,94675.03
2022-08-17T10:31:33.081Z,94673.53
2022-08-17T10:34:41.533Z,94665.88
2022-08-17T10:37:14.434Z,94662.69
2022-08-17T10:40:16.366Z,94659.50
2022-08-17T10:43:00.116Z,94659.53
2022-08-17T10:45:46.958Z,94667.69
2022-08-17T10:48:13.999Z,94662.91
2022-08-17T10:50:56.128Z,94665.22
2022-08-17T10:53:31.651Z,94664.75
2022-08-17T10:56:21.746Z,94672.16
2022-08-17T10:59:01.780Z,94671.47
2022-08-17T11:01:34.468Z,94668.19
2022-08-17T11:04:23.639Z,94672.16
2022-08-17T11:07:21.185Z,94672.44
2022-08-17T11:10:54.777Z,94668.59
2022-08-17T11:13:58.946Z,94658.09
2022-08-17T11:16:53.252Z,94660.44
2022-08-17T11:19:31.681Z,94663.97
2022-08-17T11:22:10.079Z,94664.47
2022-08-17T11:24:49.105Z,94666.38
2022-08-17T11:27:27.921Z,94663.63
2022-08-17T11:30:07.817Z,94658.09
2022-08-17T11:32:47.678Z,94655.53
2022-08-17T11:35:22.490Z,94668.59
2022-08-17T11:38:13.559Z,94667.41
2022-08-17T11:40:48.773Z,94670.50
2022-08-17T11:43:52.712Z,94678.47
2022-08-17T11:47:07.268Z,94677.22
2022-08-17T11:49:58.634Z,94683.06
2022-08-17T11:52:47.042Z,94683.84
2022-08-17T11:55:36.390Z,94680.34
2022-08-17T11:58:23.721Z,94672.47
2022-08-17T12:01:03.575Z,94683.88
2022-08-17T12:03:33.294Z,94680.66
2022-08-17T12:06:30.855Z,94666.59
2022-08-17T12:09:15.994Z,94669.66
2022-08-17T12:12:13.431Z,94664.03
2022-08-17T12:17:42.689Z,94666.81
2022-08-17T12:20:35.234Z,94661.34
2022-08-17T12:23:34.180Z,94655.75
2022-08-17T12:26:11.776Z,94653.25
2022-08-17T12:28:44.225Z,94647.63
2022-08-17T12:31:30.885Z,94644.41
2022-08-17T12:33:57.834Z,94648.00
2022-08-17T12:36:26.286Z,94635.00
2022-08-17T12:39:00.079Z,94651.09
2022-08-17T12:41:47.042Z,94643.16
2022-08-17T12:44:23.366Z,94649.91
2022-08-17T12:47:09.662Z,94640.69
2022-08-17T12:49:39.382Z,94644.50
2022-08-17T12:52:17.136Z,94648.72
2022-08-17T12:54:52.504Z,94644.41
2022-08-17T12:57:24.219Z,94647.78
2022-08-17T12:59:55.472Z,94644.78
2022-08-17T13:02:28.805Z,94646.81
2022-08-17T13:04:58.626Z,94643.03
2022-08-17T13:07:42.365Z,94638.50
2022-08-17T13:10:31.597Z,94647.88
2022-08-17T13:13:04.851Z,94643.34
2022-08-17T13:15:36.850Z,94649.16
2022-08-17T13:18:42.394Z,94638.41
2022-08-17T13:21:26.631Z,94645.44
2022-08-17T13:23:56.197Z,94648.53
2022-08-17T13:26:35.444Z,94641.13
2022-08-17T13:29:06.378Z,94638.47
2022-08-17T13:31:52.297Z,94634.72
2022-08-17T13:34:26.851Z,94636.53
2022-08-17T13:37:33.587Z,94634.34
2022-08-17T13:40:09.060Z,94617.78
2022-08-17T13:42:51.763Z,94626.75
2022-08-17T13:45:35.223Z,94632.28
2022-08-17T13:48:11.862Z,94627.50
2022-08-17T13:50:59.550Z,94615.72
2022-08-17T13:53:36.247Z,94623.38
2022-08-17T13:56:03.802Z,94618.34
2022-08-17T13:58:37.275Z,94617.00
2022-08-17T14:01:32.162Z,94600.84
2022-08-17T14:04:00.897Z,94595.44
2022-08-17T14:06:52.265Z,94590.84
2022-08-17T14:09:27.563Z,94586.91
2022-08-17T14:11:56.748Z,94584.78
2022-08-17T14:14:24.488Z,94582.94
2022-08-17T14:16:54.747Z,94579.56
2022-08-17T14:19:24.698Z,94576.06
2022-08-17T14:21:52.269Z,94578.97
2022-08-17T14:24:32.419Z,94571.59
2022-08-17T14:27:00.391Z,94567.50
2022-08-17T14:29:29.622Z,94566.19
2022-08-17T14:31:57.772Z,94565.88
2022-08-17T14:34:25.274Z,94565.78
2022-08-17T14:36:52.766Z,94563.16
2022-08-17T14:39:19.744Z,94572.72
2022-08-17T14:41:46.618Z,94560.88
2022-08-17T14:44:13.582Z,94554.53
2022-08-17T14:46:42.019Z,94548.22
2022-08-17T14:49:12.352Z,94548.41
2022-08-17T14:51:44.075Z,94538.38
2022-08-17T14:54:34.222Z,94547.88
2022-08-17T14:57:22.248Z,94549.53
2022-08-17T14:59:48.834Z,94555.28
2022-08-17T15:02:19.179Z,94551.91
2022-08-17T15:04:48.652Z,94555.06
2022-08-17T15:07:15.731Z,94542.06
2022-08-17T15:09:42.835Z,94545.69
2022-08-17T15:12:17.921Z,94542.25
2022-08-17T15:14:44.518Z,94557.38
2022-08-17T15:17:11.552Z,94556.13
2022-08-17T15:19:38.185Z,94561.53
2022-08-17T15:22:04.894Z,94558.97
2022-08-17T15:24:31.536Z,94564.84
2022-08-17T15:26:58.144Z,94562.09
2022-08-17T15:29:24.756Z,94563.13
2022-08-17T15:31:51.362Z,94560.13
2022-08-17T15:34:17.985Z,94562.78
2022-08-17T15:36:49.089Z,94556.28
2022-08-17T15:39:19.229Z,94555.34
2022-08-17T15:41:47.292Z,94548.59
2022-08-17T15:44:32.597Z,94555.88
2022-08-17T15:47:02.089Z,94561.94
2022-08-17T15:49:28.866Z,94554.34
2022-08-17T15:51:55.642Z,94557.63
2022-08-17T15:54:23.103Z,94556.31
2022-08-17T15:56:50.291Z,94553.81
2022-08-17T15:59:16.902Z,94557.69
2022-08-17T16:03:14.300Z,94548.06
2022-08-17T16:04:31.743Z,94553.72
2022-08-17T16:06:59.813Z,94555.44
2022-08-17T16:09:27.051Z,94549.44
2022-08-17T16:11:55.674Z,94554.28
2022-08-17T16:14:28.877Z,94565.34
2022-08-17T16:17:00.797Z,94555.28
2022-08-17T16:19:27.408Z,94548.06
2022-08-17T16:21:54.057Z,94556.91
2022-08-17T16:24:21.315Z,94556.88
2022-08-17T16:26:48.051Z,94543.13
2022-08-17T16:29:14.739Z,94540.56
2022-08-17T16:31:42.469Z,94535.59
2022-08-17T16:34:17.006Z,94529.41
2022-08-17T16:36:55.110Z,94527.50
2022-08-17T16:39:23.689Z,94521.69
2022-08-17T16:41:50.415Z,94526.19
2022-08-17T16:44:19.965Z,94527.88
2022-08-17T16:46:47.818Z,94528.66
2022-08-17T16:49:36.062Z,94526.03
2022-08-17T16:52:04.286Z,94514.09
2022-08-17T16:54:30.880Z,94505.31
2022-08-17T16:56:57.495Z,94506.41
2022-08-17T16:59:31.362Z,94503.25
2022-08-17T17:02:11.183Z,94504.84
2022-08-17T17:04:45.825Z,94501.13
2022-08-17T17:07:49.651Z,94503.84
2022-08-17T17:10:38.748Z,94489.22
2022-08-17T17:13:11.179Z,94488.72
2022-08-17T17:15:55.433Z,94483.78
2022-08-17T17:18:31.624Z,94481.69
2022-08-17T17:20:59.289Z,94484.91
2022-08-17T17:23:39.707Z,94482.25
2022-08-17T17:26:24.614Z,94489.81
2022-08-17T17:29:22.176Z,94489.84
2022-08-17T17:32:20.756Z,94483.50
2022-08-17T17:34:56.214Z,94483.00
2022-08-17T17:37:32.310Z,94477.13
2022-08-17T17:40:05.168Z,94489.75
2022-08-17T17:42:33.124Z,94490.25
2022-08-17T17:45:02.646Z,94489.44
2022-08-17T17:47:31.076Z,94490.88
2022-08-17T17:50:01.195Z,94491.16
2022-08-17T17:53:05.029Z,94491.63
2022-08-17T17:55:42.400Z,94471.03
2022-08-17T17:58:33.308Z,94473.06
2022-08-17T18:01:12.163Z,94476.81
2022-08-17T18:03:56.467Z,94468.38
2022-08-17T18:06:36.212Z,94469.50
2022-08-17T18:09:09.008Z,94470.28
2022-08-17T18:11:58.919Z,94470.41
2022-08-17T18:14:37.515Z,94473.47
2022-08-17T18:17:05.654Z,94478.75
2022-08-17T18:19:32.861Z,94481.06
2022-08-17T18:22:21.500Z,94473.00
2022-08-17T18:24:56.081Z,94473.56
2022-08-17T18:27:32.392Z,94465.47
2022-08-17T18:30:19.371Z,94480.94
2022-08-17T18:32:46.674Z,94481.34
2022-08-17T18:35:16.197Z,94467.84
2022-08-17T18:37:45.549Z,94470.47
2022-08-17T18:40:18.420Z,94474.22
2022-08-17T18:43:00.207Z,94465.78
2022-08-17T18:45:45.188Z,94476.25
2022-08-17T18:48:36.550Z,94479.25
2022-08-17T18:51:41.439Z,94478.56
2022-08-17T18:54:22.095Z,94477.19
2022-08-17T18:56:54.681Z,94473.53
2022-08-17T18:59:39.674Z,94461.03
2022-08-17T19:02:21.612Z,94459.25
2022-08-17T19:05:13.235Z,94454.94
2022-08-17T19:07:45.725Z,94454.56
2022-08-17T19:10:18.185Z,94454.50
2022-08-17T19:13:01.150Z,94451.22
2022-08-17T19:15:34.367Z,94456.47
2022-08-17T19:18:15.560Z,94458.06
2022-08-17T19:21:03.806Z,94464.44
2022-08-17T19:23:54.233Z,94467.22
2022-08-17T19:26:54.010Z,94471.81
2022-08-17T19:29:22.567Z,94472.91
2022-08-17T19:31:49.943Z,94486.38
2022-08-17T19:34:33.550Z,94481.22
2022-08-17T19:37:12.183Z,94467.00
2022-08-17T19:39:57.884Z,94478.41
2022-08-17T19:42:52.413Z,94494.78
2022-08-17T19:45:28.046Z,94488.09
2022-08-17T19:48:29.447Z,94494.56
2022-08-17T19:51:03.031Z,94498.66
2022-08-17T19:54:04.430Z,94501.22
2022-08-17T19:56:40.876Z,94501.09
2022-08-17T19:59:10.444Z,94492.63
2022-08-17T20:01:50.213Z,94494.03
2022-08-17T20:04:25.967Z,94499.50
2022-08-17T20:07:15.306Z,94494.59
2022-08-17T20:10:00.958Z,94489.09
2022-08-17T20:12:33.501Z,94490.72
2022-08-17T20:15:37.776Z,94490.34
2022-08-17T20:18:12.339Z,94491.47
2022-08-17T20:21:08.332Z,94478.47
2022-08-17T20:23:53.172Z,94473.72
2022-08-17T20:26:22.798Z,94476.06
2022-08-17T20:29:07.544Z,94479.63
2022-08-17T20:31:42.964Z,94478.81
2022-08-17T20:34:33.756Z,94475.97
2022-08-17T20:37:14.729Z,94472.28
2022-08-17T20:40:09.090Z,94477.56
2022-08-17T20:42:36.854Z,94461.22
2022-08-17T20:45:21.724Z,94474.22
2022-08-17T20:48:18.626Z,94474.47
2022-08-17T20:50:44.061Z,94470.25
2022-08-17T20:53:13.523Z,94470.16
2022-08-17T20:55:51.544Z,94476.31
2022-08-17T20:58:24.809Z,94479.88
2022-08-17T21:00:57.445Z,94468.88
2022-08-17T21:03:24.137Z,94470.47
2022-08-17T21:05:57.252Z,94470.00
2022-08-17T21:08:46.281Z,94464.34
2022-08-17T21:12:02.536Z,94463.00
2022-08-17T21:14:17.876Z,94462.22
2022-08-17T21:17:14.935Z,94470.56
2022-08-17T21:20:21.992Z,94483.31
2022-08-17T21:23:25.696Z,94489.25
2022-08-17T21:26:07.189Z,94499.38
2022-08-17T21:29:17.883Z,94524.75
2022-08-17T21:32:03.294Z,94543.19
2022-08-17T21:34:35.753Z,94541.00
2022-08-17T21:37:23.368Z,94546.16
2022-08-17T21:39:58.010Z,94546.06
2022-08-17T21:42:34.481Z,94538.97
2022-08-17T21:45:28.604Z,94553.69
2022-08-17T21:48:20.089Z,94585.41
2022-08-17T21:50:57.961Z,94586.41
2022-08-17T21:53:32.909Z,94584.50
2022-08-17T21:56:00.791Z,94602.19
2022-08-17T21:58:36.521Z,94612.19
2022-08-17T22:01:25.385Z,94618.50
2022-08-17T22:04:06.582Z,94617.72
2022-08-17T22:06:35.611Z,94627.00
2022-08-17T22:09:23.865Z,94640.50
2022-08-17T22:12:02.972Z,94653.16
2022-08-17T22:14:52.373Z,94666.06
2022-08-17T22:17:36.906Z,94695.66
2022-08-17T22:20:33.317Z,94713.66
2022-08-17T22:23:18.302Z,94710.03
2022-08-17T22:26:13.388Z,94734.03
2022-08-17T22:28:45.657Z,94739.06
2022-08-17T22:31:18.800Z,94737.53
2022-08-17T22:33:49.319Z,94733.34
2022-08-17T22:36:29.047Z,94724.28
2022-08-17T22:39:00.191Z,94702.78
2022-08-17T22:41:54.273Z,94698.53
2022-08-17T22:44:35.568Z,94703.53
2022-08-17T22:47:24.044Z,94722.84
2022-08-17T22:50:02.449Z,94723.44
2022-08-17T22:53:32.661Z,94727.50
2022-08-17T22:56:17.966Z,94729.31
2022-08-17T22:59:18.054Z,94726.69
2022-08-17T23:02:05.642Z,94736.16
2022-08-17T23:04:39.224Z,94742.16
2022-08-17T23:07:08.604Z,94750.00
2022-08-17T23:09:35.972Z,94738.56
2022-08-17T23:12:11.622Z,94753.84
2022-08-17T23:14:45.717Z,94751.44
2022-08-17T23:17:13.431Z,94772.16
2022-08-17T23:19:40.408Z,94788.09
2022-08-17T23:22:10.111Z,94788.06
2022-08-17T23:24:48.478Z,94793.91
2022-08-17T23:27:15.175Z,94797.13
2022-08-17T23:29:42.005Z,94805.34
2022-08-17T23:32:14.617Z,94794.69
2022-08-17T23:34:44.181Z,94799.94
2022-08-17T23:37:11.905Z,94791.09
2022-08-17T23:39:39.605Z,94805.16
2022-08-17T23:42:09.194Z,94799.31
2022-08-17T23:44:37.914Z,94808.97
2022-08-17T23:47:05.656Z,94811.78
2022-08-17T23:49:32.342Z,94818.63
2022-08-17T23:52:01.746Z,94826.25
2022-08-17T23:54:34.060Z,94825.47
2022-08-17T23:57:01.879Z,94837.09
2022-08-17T23:59:29.190Z,94833.88
